createdAt,value
2023-06-08T00:00:31.009Z,13.29
2023-06-08T00:01:02.730Z,13.29
2023-06-08T00:01:29.786Z,13.29
2023-06-08T00:02:01.054Z,13.29
2023-06-08T00:02:30.825Z,13.40
2023-06-08T00:03:02.599Z,13.40
2023-06-08T00:03:32.896Z,13.40
2023-06-08T00:04:04.618Z,13.40
2023-06-08T00:04:35.058Z,13.40
2023-06-08T00:05:07.204Z,13.40
2023-06-08T00:05:36.801Z,13.29
2023-06-08T00:06:08.548Z,13.29
2023-06-08T00:06:39.800Z,13.29
2023-06-08T00:07:10.566Z,13.29
2023-06-08T00:07:41.669Z,13.29
2023-06-08T00:08:12.449Z,13.29
2023-06-08T00:08:43.036Z,13.29
2023-06-08T00:09:14.473Z,13.29
2023-06-08T00:09:44.759Z,13.47
2023-06-08T00:10:17.575Z,13.47
2023-06-08T00:10:46.733Z,13.31
2023-06-08T00:11:18.488Z,13.31
2023-06-08T00:11:49.737Z,13.31
2023-06-08T00:12:20.964Z,13.31
2023-06-08T00:12:50.861Z,13.20
2023-06-08T00:13:22.652Z,13.37
2023-06-08T00:13:52.808Z,13.25
2023-06-08T00:14:25.165Z,13.25
2023-06-08T00:14:54.831Z,13.14
2023-06-08T00:15:27.327Z,13.14
2023-06-08T00:15:56.851Z,13.14
2023-06-08T00:16:28.492Z,13.14
2023-06-08T00:16:59.807Z,13.14
2023-06-08T00:17:30.648Z,12.98
2023-06-08T00:18:01.084Z,12.91
2023-06-08T00:18:32.551Z,13.03
2023-06-08T00:19:02.884Z,13.07
2023-06-08T00:19:34.645Z,13.23
2023-06-08T00:20:05.920Z,13.23
2023-06-08T00:20:44.053Z,13.34
2023-06-08T00:21:06.876Z,13.52
2023-06-08T00:21:38.717Z,13.34
2023-06-08T00:22:09.880Z,13.23
2023-06-08T00:22:41.307Z,13.23
2023-06-08T00:23:10.953Z,13.23
2023-06-08T00:23:42.533Z,13.23
2023-06-08T00:24:13.121Z,13.23
2023-06-08T00:24:43.818Z,13.23
2023-06-08T00:25:15.864Z,13.23
2023-06-08T00:25:46.438Z,13.23
2023-06-08T00:26:16.749Z,13.23
2023-06-08T00:26:48.454Z,13.23
2023-06-08T00:27:19.842Z,13.23
2023-06-08T00:27:51.208Z,13.23
2023-06-08T00:28:20.889Z,13.23
2023-06-08T00:28:52.630Z,13.23
2023-06-08T00:29:22.782Z,13.23
2023-06-08T00:29:54.439Z,13.23
2023-06-08T00:30:26.789Z,13.40
2023-06-08T00:30:56.604Z,13.29
2023-06-08T00:31:26.834Z,13.24
2023-06-08T00:31:58.706Z,13.24
2023-06-08T00:32:29.775Z,13.24
2023-06-08T00:33:00.841Z,13.24
2023-06-08T00:33:30.774Z,13.24
2023-06-08T00:34:02.499Z,13.24
2023-06-08T00:34:32.744Z,13.14
2023-06-08T00:35:05.630Z,13.14
2023-06-08T00:35:34.818Z,13.14
2023-06-08T00:36:06.465Z,13.14
2023-06-08T00:36:36.750Z,13.31
2023-06-08T00:37:08.565Z,13.20
2023-06-08T00:37:39.812Z,13.20
2023-06-08T00:38:10.539Z,13.20
2023-06-08T00:38:41.371Z,13.20
2023-06-08T00:39:12.428Z,13.08
2023-06-08T00:39:43.507Z,13.08
2023-06-08T00:40:14.988Z,13.08
2023-06-08T00:40:44.971Z,13.08
2023-06-08T00:41:17.291Z,13.08
2023-06-08T00:41:46.855Z,13.08
2023-06-08T00:42:18.495Z,12.98
2023-06-08T00:42:49.762Z,12.98
2023-06-08T00:43:20.856Z,12.98
2023-06-08T00:43:50.821Z,12.98
2023-06-08T00:44:22.588Z,12.98
2023-06-08T00:44:52.829Z,12.98
2023-06-08T00:45:25.308Z,13.14
2023-06-08T00:45:55.061Z,13.14
2023-06-08T00:46:26.544Z,13.14
2023-06-08T00:46:56.812Z,13.14
2023-06-08T00:47:28.467Z,13.14
2023-06-08T00:48:00.376Z,13.09
2023-06-08T00:48:30.695Z,13.09
2023-06-08T00:49:00.898Z,13.09
2023-06-08T00:49:32.449Z,13.09
2023-06-08T00:50:03.839Z,13.09
2023-06-08T00:50:34.436Z,13.09
2023-06-08T00:51:04.850Z,12.98
2023-06-08T00:51:36.593Z,12.98
2023-06-08T00:52:08.288Z,12.98
2023-06-08T00:52:38.690Z,12.98
2023-06-08T00:53:09.813Z,12.98
2023-06-08T00:53:40.781Z,12.98
2023-06-08T00:54:10.788Z,12.98
2023-06-08T00:54:43.514Z,12.98
2023-06-08T00:55:13.837Z,13.15
2023-06-08T00:55:44.634Z,13.05
2023-06-08T00:56:14.759Z,13.05
2023-06-08T00:56:46.496Z,13.05
2023-06-08T00:57:16.833Z,13.05
2023-06-08T00:57:48.554Z,13.05
2023-06-08T00:58:19.756Z,13.05
2023-06-08T00:58:50.504Z,13.05
2023-06-08T00:59:20.899Z,13.05
2023-06-08T00:59:52.477Z,13.05
2023-06-08T01:00:24.773Z,13.05
2023-06-08T01:00:57.092Z,13.05
2023-06-08T01:01:24.808Z,13.05
2023-06-08T01:01:56.604Z,13.05
2023-06-08T01:02:26.827Z,12.93
2023-06-08T01:02:58.554Z,13.10
2023-06-08T01:03:29.774Z,12.93
2023-06-08T01:04:01.057Z,13.10
2023-06-08T01:04:31.233Z,12.93
2023-06-08T01:05:03.177Z,12.99
2023-06-08T01:05:33.317Z,12.99
2023-06-08T01:06:04.547Z,12.99
2023-06-08T01:06:34.784Z,12.99
2023-06-08T01:07:06.517Z,13.10
2023-06-08T01:07:36.838Z,12.93
2023-06-08T01:08:09.555Z,13.05
2023-06-08T01:08:39.774Z,13.05
2023-06-08T01:09:10.460Z,13.05
2023-06-08T01:09:40.775Z,13.05
2023-06-08T01:10:13.036Z,13.05
2023-06-08T01:10:43.310Z,13.05
2023-06-08T01:11:14.450Z,13.05
2023-06-08T01:11:44.723Z,13.05
2023-06-08T01:12:16.460Z,12.87
2023-06-08T01:12:46.801Z,12.87
2023-06-08T01:13:18.480Z,12.87
2023-06-08T01:13:49.757Z,12.82
2023-06-08T01:14:20.959Z,12.93
2023-06-08T01:14:50.767Z,12.93
2023-06-08T01:15:23.414Z,12.98
2023-06-08T01:15:52.871Z,12.80
2023-06-08T01:16:24.541Z,12.91
2023-06-08T01:16:54.734Z,12.91
2023-06-08T01:17:35.995Z,13.08
2023-06-08T01:17:56.892Z,13.20
2023-06-08T01:18:28.537Z,12.91
2023-06-08T01:18:59.744Z,13.08
2023-06-08T01:19:30.457Z,13.08
2023-06-08T01:20:02.119Z,12.91
2023-06-08T01:20:45.209Z,12.91
2023-06-08T01:21:02.809Z,13.03
2023-06-08T01:21:35.314Z,13.03
2023-06-08T01:22:05.071Z,13.03
2023-06-08T01:22:36.458Z,13.03
2023-06-08T01:23:06.840Z,12.91
2023-06-08T01:23:38.545Z,12.91
2023-06-08T01:24:09.821Z,13.08
2023-06-08T01:24:40.096Z,12.91
2023-06-08T01:25:11.344Z,12.91
2023-06-08T01:25:43.774Z,13.08
2023-06-08T01:26:13.002Z,13.08
2023-06-08T01:26:44.476Z,12.91
2023-06-08T01:27:14.757Z,12.91
2023-06-08T01:27:46.447Z,12.91
2023-06-08T01:28:16.866Z,12.85
2023-06-08T01:28:48.453Z,12.96
2023-06-08T01:29:19.782Z,12.96
2023-06-08T01:29:50.498Z,13.07
2023-06-08T01:30:22.303Z,13.07
2023-06-08T01:30:52.539Z,13.07
2023-06-08T01:31:22.961Z,13.07
2023-06-08T01:31:54.517Z,13.07
2023-06-08T01:32:25.626Z,13.24
2023-06-08T01:32:56.611Z,13.14
2023-06-08T01:33:26.763Z,13.03
2023-06-08T01:33:58.518Z,13.08
2023-06-08T01:34:29.794Z,13.08
2023-06-08T01:35:02.792Z,12.98
2023-06-08T01:35:30.798Z,12.93
2023-06-08T01:36:02.447Z,13.09
2023-06-08T01:36:32.852Z,12.98
2023-06-08T01:37:04.614Z,12.87
2023-06-08T01:37:34.725Z,12.93
2023-06-08T01:38:08.754Z,12.93
2023-06-08T01:38:36.722Z,12.82
2023-06-08T01:39:08.778Z,12.77
2023-06-08T01:39:40.424Z,12.77
2023-06-08T01:40:10.492Z,12.66
2023-06-08T01:40:45.270Z,12.83
2023-06-08T01:41:11.741Z,12.83
2023-06-08T01:41:44.451Z,12.83
2023-06-08T01:42:13.919Z,12.72
2023-06-08T01:42:45.582Z,12.72
2023-06-08T01:43:15.816Z,12.72
2023-06-08T01:43:47.511Z,12.72
2023-06-08T01:44:17.765Z,12.61
2023-06-08T01:44:50.495Z,12.61
2023-06-08T01:45:21.152Z,12.61
2023-06-08T01:45:51.513Z,12.61
2023-06-08T01:46:21.843Z,12.50
2023-06-08T01:46:54.636Z,12.50
2023-06-08T01:47:23.750Z,12.45
2023-06-08T01:47:55.662Z,12.45
2023-06-08T01:48:25.823Z,12.61
2023-06-08T01:48:57.469Z,12.61
2023-06-08T01:49:27.731Z,12.50
2023-06-08T01:50:00.625Z,12.50
2023-06-08T01:50:30.567Z,12.50
2023-06-08T01:51:01.406Z,12.50
2023-06-08T01:51:31.766Z,12.50
2023-06-08T01:52:03.433Z,12.50
2023-06-08T01:52:34.623Z,12.50
2023-06-08T01:53:05.588Z,12.50
2023-06-08T01:53:35.726Z,12.61
2023-06-08T01:54:07.477Z,12.61
2023-06-08T01:54:37.931Z,12.61
2023-06-08T01:55:11.314Z,12.61
2023-06-08T01:55:40.158Z,12.61
2023-06-08T01:56:11.528Z,12.61
2023-06-08T01:56:41.886Z,12.66
2023-06-08T01:57:13.494Z,12.66
2023-06-08T01:57:43.945Z,12.66
2023-06-08T01:58:15.496Z,12.66
2023-06-08T01:58:45.766Z,12.66
2023-06-08T01:59:17.607Z,12.66
2023-06-08T01:59:47.770Z,12.66
2023-06-08T02:00:25.100Z,12.66
2023-06-08T02:01:13.008Z,12.66
2023-06-08T02:01:23.208Z,12.66
2023-06-08T02:01:51.878Z,12.66
2023-06-08T02:02:53.942Z,12.61
2023-06-08T02:03:25.524Z,12.61
2023-06-08T02:03:55.765Z,12.61
2023-06-08T02:04:27.524Z,12.72
2023-06-08T02:04:57.774Z,12.72
2023-06-08T02:05:31.271Z,12.72
2023-06-08T02:06:01.226Z,12.72
2023-06-08T02:06:31.823Z,12.72
2023-06-08T02:07:01.823Z,12.72
2023-06-08T02:07:33.648Z,12.72
2023-06-08T02:08:03.877Z,12.72
2023-06-08T02:08:36.780Z,12.72
2023-06-08T02:09:05.756Z,12.72
2023-06-08T02:09:37.428Z,12.72
2023-06-08T02:10:09.306Z,12.61
2023-06-08T02:10:40.443Z,12.61
2023-06-08T02:11:09.840Z,12.50
2023-06-08T02:11:41.434Z,12.50
2023-06-08T02:12:11.849Z,12.50
2023-06-08T02:12:43.867Z,12.50
2023-06-08T02:13:13.793Z,12.66
2023-06-08T02:13:45.542Z,12.66
2023-06-08T02:14:15.788Z,12.66
2023-06-08T02:14:47.453Z,12.50
2023-06-08T02:15:19.229Z,12.50
2023-06-08T02:15:50.488Z,12.50
2023-06-08T02:16:20.202Z,12.66
2023-06-08T02:16:51.528Z,12.61
2023-06-08T02:17:21.757Z,12.61
2023-06-08T02:17:53.476Z,12.61
2023-06-08T02:18:23.713Z,12.61
2023-06-08T02:18:55.527Z,12.66
2023-06-08T02:19:26.566Z,12.66
2023-06-08T02:19:57.492Z,12.66
2023-06-08T02:20:42.804Z,12.61
2023-06-08T02:21:01.350Z,12.61
2023-06-08T02:21:29.811Z,12.61
2023-06-08T02:22:00.883Z,12.61
2023-06-08T02:22:32.514Z,12.61
2023-06-08T02:23:03.154Z,12.61
2023-06-08T02:23:34.548Z,12.61
2023-06-08T02:24:04.855Z,12.61
2023-06-08T02:24:35.714Z,12.61
2023-06-08T02:25:07.332Z,12.61
2023-06-08T02:25:38.569Z,12.61
2023-06-08T02:26:09.966Z,12.61
2023-06-08T02:26:40.831Z,12.61
2023-06-08T02:27:10.746Z,12.50
2023-06-08T02:27:42.458Z,12.50
2023-06-08T02:28:12.797Z,12.50
2023-06-08T02:28:45.142Z,12.50
2023-06-08T02:29:14.762Z,12.39
2023-06-08T02:29:46.897Z,12.39
2023-06-08T02:30:18.588Z,12.55
2023-06-08T02:30:48.569Z,12.55
2023-06-08T02:31:19.851Z,12.55
2023-06-08T02:31:50.501Z,12.55
2023-06-08T02:32:20.774Z,12.50
2023-06-08T02:32:52.850Z,12.66
2023-06-08T02:33:22.762Z,12.50
2023-06-08T02:33:54.489Z,12.50
2023-06-08T02:34:24.745Z,12.61
2023-06-08T02:34:56.483Z,12.61
2023-06-08T02:35:27.992Z,12.61
2023-06-08T02:35:58.494Z,12.61
2023-06-08T02:36:29.752Z,12.61
2023-06-08T02:37:00.968Z,12.61
2023-06-08T02:37:31.176Z,12.66
2023-06-08T02:38:02.524Z,12.50
2023-06-08T02:38:32.754Z,12.50
2023-06-08T02:39:04.493Z,12.50
2023-06-08T02:39:35.681Z,12.50
2023-06-08T02:40:07.417Z,12.50
2023-06-08T02:40:43.687Z,12.50
2023-06-08T02:41:08.649Z,12.50
2023-06-08T02:41:39.763Z,12.50
2023-06-08T02:42:11.328Z,12.50
2023-06-08T02:42:40.812Z,12.50
2023-06-08T02:43:12.443Z,12.50
2023-06-08T02:43:43.145Z,12.50
2023-06-08T02:44:14.435Z,12.50
2023-06-08T02:44:44.736Z,12.50
2023-06-08T02:45:17.473Z,12.61
2023-06-08T02:45:46.809Z,12.61
2023-06-08T02:46:18.941Z,12.61
2023-06-08T02:46:49.749Z,12.61
2023-06-08T02:47:20.929Z,12.43
2023-06-08T02:47:50.759Z,12.43
2023-06-08T02:48:22.646Z,12.43
2023-06-08T02:48:52.806Z,12.43
2023-06-08T02:49:24.454Z,12.61
2023-06-08T02:49:54.722Z,12.43
2023-06-08T02:50:27.044Z,12.43
2023-06-08T02:50:56.894Z,12.43
2023-06-08T02:51:28.522Z,12.55
2023-06-08T02:52:00.196Z,12.55
2023-06-08T02:52:30.450Z,12.55
2023-06-08T02:53:01.658Z,12.55
2023-06-08T02:53:32.459Z,12.55
2023-06-08T02:54:02.791Z,12.60
2023-06-08T02:54:35.559Z,12.60
2023-06-08T02:55:05.847Z,12.64
2023-06-08T02:55:37.265Z,12.64
2023-06-08T02:56:06.750Z,12.64
2023-06-08T02:56:38.991Z,12.64
2023-06-08T02:57:09.827Z,12.48
2023-06-08T02:57:40.783Z,12.59
2023-06-08T02:58:10.787Z,12.59
2023-06-08T02:58:42.535Z,12.71
2023-06-08T02:59:12.783Z,12.82
2023-06-08T02:59:45.234Z,12.75
2023-06-08T03:00:16.278Z,12.58
2023-06-08T03:01:00.620Z,12.74
2023-06-08T03:01:21.853Z,12.68
2023-06-08T03:01:48.629Z,12.79
2023-06-08T03:02:20.647Z,12.89
2023-06-08T03:02:50.492Z,12.89
2023-06-08T03:03:20.847Z,13.07
2023-06-08T03:03:52.581Z,13.14
2023-06-08T03:04:23.025Z,13.03
2023-06-08T03:04:56.814Z,12.98
2023-06-08T03:05:25.359Z,13.09
2023-06-08T03:05:55.888Z,12.87
2023-06-08T03:06:27.967Z,12.77
2023-06-08T03:06:58.099Z,12.72
2023-06-08T03:07:30.595Z,12.50
2023-06-08T03:08:00.684Z,12.61
2023-06-08T03:08:31.721Z,12.50
2023-06-08T03:09:02.117Z,12.39
2023-06-08T03:09:33.737Z,12.43
2023-06-08T03:10:05.295Z,12.32
2023-06-08T03:10:36.211Z,12.32
2023-06-08T03:11:05.915Z,12.27
2023-06-08T03:11:37.821Z,12.27
2023-06-08T03:12:08.143Z,12.44
2023-06-08T03:12:40.918Z,12.44
2023-06-08T03:13:11.173Z,12.34
2023-06-08T03:13:41.592Z,12.34
2023-06-08T03:14:11.924Z,12.34
2023-06-08T03:14:43.768Z,12.34
2023-06-08T03:15:15.609Z,12.34
2023-06-08T03:15:47.037Z,12.34
2023-06-08T03:16:15.962Z,12.34
2023-06-08T03:16:47.624Z,12.34
2023-06-08T03:17:17.978Z,12.34
2023-06-08T03:17:50.595Z,12.34
2023-06-08T03:18:20.216Z,12.34
2023-06-08T03:18:51.613Z,12.34
2023-06-08T03:19:21.806Z,12.34
2023-06-08T03:19:54.020Z,12.34
2023-06-08T03:20:24.624Z,12.44
2023-06-08T03:20:55.567Z,12.44
2023-06-08T03:21:25.880Z,12.44
2023-06-08T03:21:57.578Z,12.44
2023-06-08T03:22:27.871Z,12.44
2023-06-08T03:23:01.062Z,12.44
2023-06-08T03:23:29.957Z,12.44
2023-06-08T03:24:01.784Z,12.44
2023-06-08T03:24:31.855Z,12.44
2023-06-08T03:25:03.849Z,12.49
2023-06-08T03:25:36.103Z,12.49
2023-06-08T03:26:04.881Z,12.49
2023-06-08T03:26:37.029Z,12.32
2023-06-08T03:27:06.858Z,12.32
2023-06-08T03:27:38.868Z,12.43
2023-06-08T03:28:10.237Z,12.43
2023-06-08T03:28:40.824Z,12.55
2023-06-08T03:29:10.906Z,12.55
2023-06-08T03:29:45.741Z,12.55
2023-06-08T03:30:15.086Z,12.39
2023-06-08T03:30:44.534Z,12.39
2023-06-08T03:31:15.638Z,12.66
2023-06-08T03:31:45.874Z,12.50
2023-06-08T03:32:17.714Z,12.50
2023-06-08T03:32:47.918Z,12.50
2023-06-08T03:33:20.568Z,12.61
2023-06-08T03:33:49.891Z,12.61
2023-06-08T03:34:21.612Z,12.61
2023-06-08T03:34:51.942Z,12.50
2023-06-08T03:35:24.218Z,12.45
2023-06-08T03:35:53.926Z,12.50
2023-06-08T03:36:25.666Z,12.39
2023-06-08T03:36:55.851Z,12.27
2023-06-08T03:37:27.711Z,12.16
2023-06-08T03:37:58.242Z,12.32
2023-06-08T03:38:31.186Z,12.32
2023-06-08T03:39:00.349Z,12.27
2023-06-08T03:39:31.596Z,12.27
2023-06-08T03:40:03.486Z,12.27
2023-06-08T03:40:44.934Z,12.27
2023-06-08T03:41:04.153Z,12.27
2023-06-08T03:41:35.516Z,12.27
2023-06-08T03:42:05.910Z,12.27
2023-06-08T03:42:38.717Z,12.27
2023-06-08T03:43:07.939Z,12.16
2023-06-08T03:43:40.621Z,12.16
2023-06-08T03:44:10.136Z,12.16
2023-06-08T03:44:41.800Z,12.16
2023-06-08T03:45:12.750Z,12.23
2023-06-08T03:45:43.866Z,12.23
2023-06-08T03:46:14.045Z,12.23
2023-06-08T03:46:46.049Z,12.23
2023-06-08T03:47:15.976Z,12.23
2023-06-08T03:47:48.019Z,12.23
2023-06-08T03:48:17.863Z,12.11
2023-06-08T03:48:50.588Z,12.11
2023-06-08T03:49:20.175Z,12.11
2023-06-08T03:49:51.581Z,12.11
2023-06-08T03:50:22.359Z,12.11
2023-06-08T03:50:53.629Z,12.11
2023-06-08T03:51:23.873Z,12.11
2023-06-08T03:51:55.599Z,12.11
2023-06-08T03:52:25.892Z,12.16
2023-06-08T03:52:57.682Z,12.16
2023-06-08T03:53:28.600Z,12.11
2023-06-08T03:54:00.933Z,12.11
2023-06-08T03:54:29.891Z,12.27
2023-06-08T03:55:03.112Z,12.27
2023-06-08T03:55:31.860Z,12.27
2023-06-08T03:56:04.376Z,12.27
2023-06-08T03:56:33.990Z,12.27
2023-06-08T03:57:05.723Z,12.27
2023-06-08T03:57:36.080Z,12.27
2023-06-08T03:58:07.533Z,12.27
2023-06-08T03:58:37.875Z,12.27
2023-06-08T03:59:11.470Z,12.27
2023-06-08T03:59:40.298Z,12.27
2023-06-08T04:00:14.109Z,12.27
2023-06-08T04:00:54.257Z,12.27
2023-06-08T04:01:13.025Z,12.27
2023-06-08T04:01:44.723Z,12.27
2023-06-08T04:02:14.960Z,12.39
2023-06-08T04:02:47.448Z,12.39
2023-06-08T04:03:17.089Z,12.39
2023-06-08T04:03:48.708Z,12.39
2023-06-08T04:04:20.171Z,12.23
2023-06-08T04:04:50.614Z,12.23
2023-06-08T04:05:21.401Z,12.34
2023-06-08T04:05:52.796Z,12.34
2023-06-08T04:06:22.932Z,12.34
2023-06-08T04:06:55.206Z,12.34
2023-06-08T04:07:24.838Z,12.34
2023-06-08T04:07:57.695Z,12.34
2023-06-08T04:08:26.937Z,12.34
2023-06-08T04:08:58.825Z,12.34
2023-06-08T04:09:30.564Z,12.34
2023-06-08T04:10:01.484Z,12.34
2023-06-08T04:10:31.421Z,12.23
2023-06-08T04:11:02.554Z,12.23
2023-06-08T04:11:32.953Z,12.23
2023-06-08T04:12:04.719Z,12.23
2023-06-08T04:12:34.833Z,12.23
2023-06-08T04:13:06.588Z,12.34
2023-06-08T04:13:37.576Z,12.34
2023-06-08T04:14:08.714Z,12.34
2023-06-08T04:14:39.894Z,12.34
2023-06-08T04:15:12.089Z,12.34
2023-06-08T04:15:41.052Z,12.34
2023-06-08T04:16:12.726Z,12.34
2023-06-08T04:16:43.197Z,12.34
2023-06-08T04:17:14.626Z,12.34
2023-06-08T04:17:45.363Z,12.34
2023-06-08T04:18:16.580Z,12.34
2023-06-08T04:18:46.888Z,12.34
2023-06-08T04:19:18.640Z,12.34
2023-06-08T04:19:49.879Z,12.34
2023-06-08T04:20:22.813Z,12.34
2023-06-08T04:20:52.566Z,12.34
2023-06-08T04:21:22.568Z,12.34
2023-06-08T04:21:53.011Z,12.34
2023-06-08T04:22:25.701Z,12.44
2023-06-08T04:22:55.074Z,12.44
2023-06-08T04:23:26.613Z,12.44
2023-06-08T04:23:56.979Z,12.44
2023-06-08T04:24:31.746Z,12.44
2023-06-08T04:24:59.847Z,12.49
2023-06-08T04:25:30.411Z,12.49
2023-06-08T04:26:02.007Z,12.49
2023-06-08T04:26:31.873Z,12.49
2023-06-08T04:27:04.464Z,12.49
2023-06-08T04:27:33.896Z,12.60
2023-06-08T04:28:05.620Z,12.43
2023-06-08T04:28:36.201Z,12.43
2023-06-08T04:29:07.619Z,12.43
2023-06-08T04:29:37.878Z,12.43
2023-06-08T04:30:11.588Z,12.43
2023-06-08T04:30:40.311Z,12.43
2023-06-08T04:31:11.600Z,12.55
2023-06-08T04:31:42.100Z,12.55
2023-06-08T04:32:13.889Z,12.55
2023-06-08T04:32:44.292Z,12.55
2023-06-08T04:33:15.636Z,12.55
2023-06-08T04:33:46.691Z,12.55
2023-06-08T04:34:17.601Z,12.66
2023-06-08T04:34:47.848Z,12.77
2023-06-08T04:35:21.178Z,12.82
2023-06-08T04:35:49.895Z,12.66
2023-06-08T04:36:21.567Z,12.82
2023-06-08T04:36:51.857Z,12.82
2023-06-08T04:37:23.526Z,12.66
2023-06-08T04:37:54.698Z,12.77
2023-06-08T04:38:25.598Z,12.89
2023-06-08T04:38:55.995Z,12.89
2023-06-08T04:39:27.659Z,12.89
2023-06-08T04:39:57.987Z,12.89
2023-06-08T04:40:46.265Z,12.72
2023-06-08T04:41:00.306Z,12.72
2023-06-08T04:41:31.948Z,12.72
2023-06-08T04:42:01.971Z,12.72
2023-06-08T04:42:33.710Z,12.72
2023-06-08T04:43:04.011Z,12.72
2023-06-08T04:43:36.910Z,12.72
2023-06-08T04:44:05.889Z,12.72
2023-06-08T04:44:37.536Z,12.89
2023-06-08T04:45:09.127Z,12.89
2023-06-08T04:45:41.446Z,12.99
2023-06-08T04:46:10.319Z,12.99
2023-06-08T04:46:41.819Z,12.99
2023-06-08T04:47:12.785Z,12.99
2023-06-08T04:47:44.097Z,12.99
2023-06-08T04:48:14.270Z,12.99
2023-06-08T04:48:45.616Z,12.99
2023-06-08T04:49:15.873Z,13.10
2023-06-08T04:49:47.932Z,13.10
2023-06-08T04:50:18.520Z,12.94
2023-06-08T04:50:51.490Z,12.99
2023-06-08T04:51:20.264Z,12.99
2023-06-08T04:51:50.860Z,12.99
2023-06-08T04:52:22.679Z,13.10
2023-06-08T04:52:53.373Z,13.10
2023-06-08T04:53:24.608Z,13.10
2023-06-08T04:53:55.817Z,13.10
2023-06-08T04:54:27.556Z,13.22
2023-06-08T04:54:56.913Z,13.22
2023-06-08T04:55:29.040Z,13.05
2023-06-08T04:55:59.873Z,13.15
2023-06-08T04:56:30.915Z,13.15
2023-06-08T04:57:00.986Z,13.26
2023-06-08T04:57:32.595Z,13.14
2023-06-08T04:58:03.276Z,13.25
2023-06-08T04:58:35.253Z,13.37
2023-06-08T04:59:04.852Z,13.20
2023-06-08T04:59:36.859Z,13.42
2023-06-08T05:00:08.531Z,13.47
2023-06-08T05:00:56.171Z,13.47
2023-06-08T05:01:10.062Z,13.40
2023-06-08T05:01:42.028Z,13.40
2023-06-08T05:02:11.194Z,13.40
2023-06-08T05:02:42.607Z,13.40
2023-06-08T05:03:13.229Z,13.58
2023-06-08T05:03:44.703Z,13.58
2023-06-08T05:04:14.894Z,13.40
2023-06-08T05:04:46.584Z,13.52
2023-06-08T05:05:17.363Z,13.52
2023-06-08T05:05:48.597Z,13.52
2023-06-08T05:06:19.945Z,13.52
2023-06-08T05:06:50.555Z,13.52
2023-06-08T05:07:21.778Z,13.52
2023-06-08T05:07:52.715Z,13.52
2023-06-08T05:08:23.044Z,13.52
2023-06-08T05:08:54.747Z,13.52
2023-06-08T05:09:25.026Z,13.63
2023-06-08T05:09:57.650Z,13.45
2023-06-08T05:10:27.583Z,13.63
2023-06-08T05:10:58.726Z,13.63
2023-06-08T05:11:30.089Z,13.63
2023-06-08T05:12:01.294Z,13.56
2023-06-08T05:12:31.058Z,13.56
2023-06-08T05:13:05.017Z,13.56
2023-06-08T05:13:33.026Z,13.56
2023-06-08T05:14:04.868Z,13.74
2023-06-08T05:14:36.033Z,13.74
2023-06-08T05:15:07.435Z,13.56
2023-06-08T05:15:37.732Z,13.56
2023-06-08T05:16:07.999Z,13.61
2023-06-08T05:16:41.526Z,13.61
2023-06-08T05:17:10.189Z,13.61
2023-06-08T05:17:46.405Z,13.43
2023-06-08T05:18:12.460Z,13.54
2023-06-08T05:18:43.229Z,13.66
2023-06-08T05:19:14.760Z,13.77
2023-06-08T05:19:45.032Z,13.59
2023-06-08T05:20:17.250Z,13.59
2023-06-08T05:20:48.751Z,13.77
2023-06-08T05:21:18.783Z,13.77
2023-06-08T05:21:50.263Z,13.70
2023-06-08T05:22:21.258Z,13.93
2023-06-08T05:22:51.064Z,13.86
2023-06-08T05:23:24.559Z,14.08
2023-06-08T05:23:53.093Z,14.19
2023-06-08T05:24:24.768Z,14.42
2023-06-08T05:24:55.593Z,14.24
2023-06-08T05:25:26.640Z,13.97
2023-06-08T05:25:57.736Z,14.19
2023-06-08T05:26:28.112Z,14.19
2023-06-08T05:27:00.891Z,14.01
2023-06-08T05:27:30.747Z,14.01
2023-06-08T05:28:01.997Z,14.12
2023-06-08T05:28:32.078Z,14.12
2023-06-08T05:29:04.069Z,14.35
2023-06-08T05:29:34.073Z,14.17
2023-06-08T05:30:08.505Z,13.98
2023-06-08T05:30:36.201Z,14.17
2023-06-08T05:31:07.755Z,14.17
2023-06-08T05:31:38.587Z,13.98
2023-06-08T05:32:10.771Z,14.12
2023-06-08T05:32:40.511Z,14.12
2023-06-08T05:33:11.964Z,14.08
2023-06-08T05:33:41.961Z,14.05
2023-06-08T05:34:15.009Z,14.19
2023-06-08T05:34:44.528Z,14.19
2023-06-08T05:35:16.287Z,14.19
2023-06-08T05:35:46.012Z,14.05
2023-06-08T05:36:17.710Z,14.16
2023-06-08T05:36:47.925Z,14.16
2023-06-08T05:37:20.875Z,13.97
2023-06-08T05:37:50.125Z,14.16
2023-06-08T05:38:22.391Z,13.97
2023-06-08T05:38:52.007Z,13.97
2023-06-08T05:39:23.767Z,14.16
2023-06-08T05:39:54.121Z,14.05
2023-06-08T05:40:26.797Z,14.05
2023-06-08T05:40:56.802Z,14.08
2023-06-08T05:41:27.769Z,13.97
2023-06-08T05:41:57.986Z,13.97
2023-06-08T05:42:30.878Z,13.97
2023-06-08T05:43:00.342Z,13.97
2023-06-08T05:43:32.406Z,14.08
2023-06-08T05:44:02.012Z,14.08
2023-06-08T05:44:33.718Z,14.08
2023-06-08T05:45:06.329Z,14.00
2023-06-08T05:45:39.169Z,14.19
2023-06-08T05:46:06.005Z,14.19
2023-06-08T05:46:36.981Z,14.05
2023-06-08T05:47:09.805Z,14.05
2023-06-08T05:47:40.662Z,14.05
2023-06-08T05:48:11.046Z,14.08
2023-06-08T05:48:41.136Z,14.19
2023-06-08T05:49:13.949Z,14.30
2023-06-08T05:49:43.187Z,14.30
2023-06-08T05:50:15.938Z,14.49
2023-06-08T05:50:45.016Z,14.30
2023-06-08T05:51:17.646Z,14.30
2023-06-08T05:51:47.593Z,14.30
2023-06-08T05:52:18.858Z,14.30
2023-06-08T05:52:50.102Z,14.38
2023-06-08T05:53:21.174Z,14.27
2023-06-08T05:53:51.071Z,14.16
2023-06-08T05:54:23.420Z,14.16
2023-06-08T05:54:52.996Z,14.16
2023-06-08T05:55:25.231Z,14.05
2023-06-08T05:55:55.022Z,14.05
2023-06-08T05:56:26.680Z,14.05
2023-06-08T05:56:57.007Z,14.19
2023-06-08T05:57:28.853Z,14.37
2023-06-08T05:58:00.128Z,14.37
2023-06-08T05:58:48.185Z,14.37
2023-06-08T05:59:01.326Z,14.26
2023-06-08T05:59:32.724Z,14.08
2023-06-08T06:00:04.534Z,14.08
2023-06-08T06:00:36.527Z,14.26
2023-06-08T06:01:05.783Z,14.15
2023-06-08T06:01:37.513Z,14.15
2023-06-08T06:02:07.258Z,13.97
2023-06-08T06:02:39.193Z,14.03
2023-06-08T06:03:10.114Z,14.03
2023-06-08T06:03:42.121Z,14.03
2023-06-08T06:04:22.347Z,13.86
2023-06-08T06:04:43.007Z,14.03
2023-06-08T06:05:14.633Z,13.86
2023-06-08T06:05:44.981Z,13.86
2023-06-08T06:06:15.051Z,13.97
2023-06-08T06:06:48.637Z,14.08
2023-06-08T06:07:16.983Z,14.08
2023-06-08T06:07:49.494Z,13.89
2023-06-08T06:08:20.084Z,13.89
2023-06-08T06:08:50.772Z,13.89
2023-06-08T06:09:21.027Z,13.70
2023-06-08T06:09:52.682Z,13.81
2023-06-08T06:10:23.498Z,13.86
2023-06-08T06:10:54.677Z,13.68
2023-06-08T06:11:25.102Z,13.86
2023-06-08T06:11:56.647Z,13.86
2023-06-08T06:12:27.213Z,13.81
2023-06-08T06:12:58.795Z,14.00
2023-06-08T06:13:30.050Z,13.81
2023-06-08T06:14:01.130Z,13.81
2023-06-08T06:14:31.102Z,13.86
2023-06-08T06:15:03.789Z,13.97
2023-06-08T06:15:33.137Z,14.08
2023-06-08T06:16:04.890Z,13.91
2023-06-08T06:16:35.066Z,13.91
2023-06-08T06:17:07.829Z,14.01
2023-06-08T06:17:37.164Z,14.12
2023-06-08T06:18:09.135Z,14.12
2023-06-08T06:18:40.134Z,14.12
2023-06-08T06:19:10.774Z,14.35
2023-06-08T06:19:41.012Z,14.35
2023-06-08T06:20:13.427Z,14.30
2023-06-08T06:20:43.599Z,14.30
2023-06-08T06:21:15.669Z,14.30
2023-06-08T06:21:44.991Z,14.12
2023-06-08T06:22:16.862Z,14.12
2023-06-08T06:22:47.079Z,14.12
2023-06-08T06:23:18.660Z,14.12
2023-06-08T06:23:50.875Z,14.30
2023-06-08T06:24:21.765Z,14.30
2023-06-08T06:24:52.729Z,14.49
2023-06-08T06:25:24.017Z,14.30
2023-06-08T06:25:53.860Z,14.12
2023-06-08T06:26:24.018Z,14.30
2023-06-08T06:26:55.765Z,14.30
2023-06-08T06:27:26.039Z,14.12
2023-06-08T06:27:58.345Z,14.30
2023-06-08T06:28:27.997Z,14.49
2023-06-08T06:29:00.933Z,14.49
2023-06-08T06:29:30.013Z,14.30
2023-06-08T06:30:03.558Z,14.35
2023-06-08T06:30:32.082Z,14.54
2023-06-08T06:31:03.691Z,14.35
2023-06-08T06:31:34.058Z,14.35
2023-06-08T06:32:05.885Z,14.35
2023-06-08T06:32:35.999Z,14.35
2023-06-08T06:33:07.796Z,14.73
2023-06-08T06:33:37.941Z,14.54
2023-06-08T06:34:12.009Z,14.54
2023-06-08T06:34:41.137Z,14.45
2023-06-08T06:35:11.865Z,14.45
2023-06-08T06:35:42.929Z,14.45
2023-06-08T06:36:13.004Z,14.45
2023-06-08T06:36:44.748Z,14.45
2023-06-08T06:37:15.043Z,14.45
2023-06-08T06:37:46.842Z,14.65
2023-06-08T06:38:17.422Z,14.45
2023-06-08T06:38:48.707Z,14.45
2023-06-08T06:39:20.069Z,14.68
2023-06-08T06:39:50.675Z,14.61